sensor_id;sensor_type;location;lat;lon;timestamp;temperature;humidity
28171;DHT22;15458;53.346;-1.688;2022-12-20T00:00:58;9.70;99.90
28171;DHT22;15458;53.346;-1.688;2022-12-20T00:03:24;9.70;99.90
28171;DHT22;15458;53.346;-1.688;2022-12-20T00:05:49;9.70;99.90
28171;DHT22;15458;53.346;-1.688;2022-12-20T00:08:18;9.70;99.90
28171;DHT22;15458;53.346;-1.688;2022-12-20T00:10:44;9.60;99.90
28171;DHT22;15458;53.346;-1.688;2022-12-20T00:13:11;9.60;99.90
28171;DHT22;15458;53.346;-1.688;2022-12-20T00:15:37;9.60;99.90
28171;DHT22;15458;53.346;-1.688;2022-12-20T00:18:03;9.60;99.90
28171;DHT22;15458;53.346;-1.688;2022-12-20T00:20:28;9.60;99.90
28171;DHT22;15458;53.346;-1.688;2022-12-20T00:22:54;9.60;99.90
28171;DHT22;15458;53.346;-1.688;2022-12-20T00:25:21;9.60;99.90
28171;DHT22;15458;53.346;-1.688;2022-12-20T00:27:47;9.60;99.90
28171;DHT22;15458;53.346;-1.688;2022-12-20T00:30:14;9.50;99.90
28171;DHT22;15458;53.346;-1.688;2022-12-20T00:32:40;9.50;99.90
28171;DHT22;15458;53.346;-1.688;2022-12-20T00:35:07;9.50;99.90
28171;DHT22;15458;53.346;-1.688;2022-12-20T00:37:32;9.50;99.90
28171;DHT22;15458;53.346;-1.688;2022-12-20T00:39:58;9.50;99.90
28171;DHT22;15458;53.346;-1.688;2022-12-20T00:42:24;9.50;99.90
28171;DHT22;15458;53.346;-1.688;2022-12-20T00:44:49;9.50;99.90
28171;DHT22;15458;53.346;-1.688;2022-12-20T00:47:15;9.50;99.90
28171;DHT22;15458;53.346;-1.688;2022-12-20T00:49:41;9.50;99.90
28171;DHT22;15458;53.346;-1.688;2022-12-20T00:52:06;9.50;99.90
28171;DHT22;15458;53.346;-1.688;2022-12-20T00:54:32;9.50;99.90
28171;DHT22;15458;53.346;-1.688;2022-12-20T00:56:58;9.50;99.90
28171;DHT22;15458;53.346;-1.688;2022-12-20T00:59:24;9.40;99.90
28171;DHT22;15458;53.346;-1.688;2022-12-20T01:01:50;9.40;99.90
28171;DHT22;15458;53.346;-1.688;2022-12-20T01:04:16;9.40;99.90
28171;DHT22;15458;53.346;-1.688;2022-12-20T01:06:42;9.40;99.90
28171;DHT22;15458;53.346;-1.688;2022-12-20T01:09:09;9.40;99.90
28171;DHT22;15458;53.346;-1.688;2022-12-20T01:11:36;9.40;99.90
28171;DHT22;15458;53.346;-1.688;2022-12-20T01:14:13;9.30;99.90
28171;DHT22;15458;53.346;-1.688;2022-12-20T01:16:41;9.30;99.90
28171;DHT22;15458;53.346;-1.688;2022-12-20T01:19:08;9.30;99.90
28171;DHT22;15458;53.346;-1.688;2022-12-20T01:21:34;9.30;99.90
28171;DHT22;15458;53.346;-1.688;2022-12-20T01:24:00;9.30;99.90
28171;DHT22;15458;53.346;-1.688;2022-12-20T01:26:27;9.30;99.90
28171;DHT22;15458;53.346;-1.688;2022-12-20T01:28:58;9.30;99.90
28171;DHT22;15458;53.346;-1.688;2022-12-20T01:31:28;9.30;99.90
28171;DHT22;15458;53.346;-1.688;2022-12-20T01:33:54;9.30;99.90
28171;DHT22;15458;53.346;-1.688;2022-12-20T01:36:22;9.20;99.90
28171;DHT22;15458;53.346;-1.688;2022-12-20T01:39:02;9.20;99.90
28171;DHT22;15458;53.346;-1.688;2022-12-20T01:41:29;9.20;99.90
28171;DHT22;15458;53.346;-1.688;2022-12-20T01:43:58;9.20;99.90
28171;DHT22;15458;53.346;-1.688;2022-12-20T01:46:27;9.20;99.90
28171;DHT22;15458;53.346;-1.688;2022-12-20T01:49:06;9.20;99.90
28171;DHT22;15458;53.346;-1.688;2022-12-20T01:51:43;9.20;99.90
28171;DHT22;15458;53.346;-1.688;2022-12-20T01:54:13;9.20;99.90
28171;DHT22;15458;53.346;-1.688;2022-12-20T01:56:42;9.20;99.90
28171;DHT22;15458;53.346;-1.688;2022-12-20T01:59:10;9.10;99.90
28171;DHT22;15458;53.346;-1.688;2022-12-20T02:01:37;9.10;99.90
28171;DHT22;15458;53.346;-1.688;2022-12-20T02:04:02;9.10;99.90
28171;DHT22;15458;53.346;-1.688;2022-12-20T02:06:28;9.10;99.90
28171;DHT22;15458;53.346;-1.688;2022-12-20T02:08:57;9.10;99.90
28171;DHT22;15458;53.346;-1.688;2022-12-20T02:16:40;9.10;99.90
28171;DHT22;15458;53.346;-1.688;2022-12-20T02:21:59;9.00;99.90
28171;DHT22;15458;53.346;-1.688;2022-12-20T02:27:30;9.00;99.90
28171;DHT22;15458;53.346;-1.688;2022-12-20T02:30:05;9.00;99.90
28171;DHT22;15458;53.346;-1.688;2022-12-20T02:32:59;8.90;99.90
28171;DHT22;15458;53.346;-1.688;2022-12-20T02:35:30;8.90;99.90
28171;DHT22;15458;53.346;-1.688;2022-12-20T02:37:59;8.90;99.90
28171;DHT22;15458;53.346;-1.688;2022-12-20T02:40:36;8.90;99.90
28171;DHT22;15458;53.346;-1.688;2022-12-20T02:43:06;8.90;99.90
28171;DHT22;15458;53.346;-1.688;2022-12-20T02:45:53;8.90;99.90
28171;DHT22;15458;53.346;-1.688;2022-12-20T02:48:20;8.90;99.90
28171;DHT22;15458;53.346;-1.688;2022-12-20T02:50:52;8.80;99.90
28171;DHT22;15458;53.346;-1.688;2022-12-20T02:53:27;8.80;99.90
28171;DHT22;15458;53.346;-1.688;2022-12-20T02:56:27;8.80;99.90
28171;DHT22;15458;53.346;-1.688;2022-12-20T02:59:46;8.80;99.90
28171;DHT22;15458;53.346;-1.688;2022-12-20T03:02:05;8.70;99.90
28171;DHT22;15458;53.346;-1.688;2022-12-20T03:04:36;8.70;99.90
28171;DHT22;15458;53.346;-1.688;2022-12-20T03:07:09;8.70;99.90
28171;DHT22;15458;53.346;-1.688;2022-12-20T03:09:41;8.60;99.90
28171;DHT22;15458;53.346;-1.688;2022-12-20T03:12:07;8.60;99.90
28171;DHT22;15458;53.346;-1.688;2022-12-20T03:14:35;8.70;99.90
28171;DHT22;15458;53.346;-1.688;2022-12-20T03:17:00;8.60;99.90
28171;DHT22;15458;53.346;-1.688;2022-12-20T03:19:26;8.60;99.90
28171;DHT22;15458;53.346;-1.688;2022-12-20T03:21:52;8.50;99.90
28171;DHT22;15458;53.346;-1.688;2022-12-20T03:24:17;8.50;99.90
28171;DHT22;15458;53.346;-1.688;2022-12-20T03:26:43;8.50;99.90
28171;DHT22;15458;53.346;-1.688;2022-12-20T03:29:09;8.50;99.90
28171;DHT22;15458;53.346;-1.688;2022-12-20T03:31:36;8.50;99.90
28171;DHT22;15458;53.346;-1.688;2022-12-20T03:34:02;8.40;99.90
28171;DHT22;15458;53.346;-1.688;2022-12-20T03:36:30;8.40;99.90
28171;DHT22;15458;53.346;-1.688;2022-12-20T03:38:56;8.40;99.90
28171;DHT22;15458;53.346;-1.688;2022-12-20T03:41:22;8.40;99.90
28171;DHT22;15458;53.346;-1.688;2022-12-20T03:43:48;8.30;99.90
28171;DHT22;15458;53.346;-1.688;2022-12-20T03:46:23;8.30;99.90
28171;DHT22;15458;53.346;-1.688;2022-12-20T03:48:50;8.30;99.90
28171;DHT22;15458;53.346;-1.688;2022-12-20T03:51:21;8.30;99.90
28171;DHT22;15458;53.346;-1.688;2022-12-20T03:53:46;8.20;99.90
28171;DHT22;15458;53.346;-1.688;2022-12-20T03:56:15;8.20;99.90
28171;DHT22;15458;53.346;-1.688;2022-12-20T03:58:41;8.20;99.90
28171;DHT22;15458;53.346;-1.688;2022-12-20T04:01:36;8.20;99.90
28171;DHT22;15458;53.346;-1.688;2022-12-20T04:04:03;8.20;99.90
28171;DHT22;15458;53.346;-1.688;2022-12-20T04:06:30;8.20;99.90
28171;DHT22;15458;53.346;-1.688;2022-12-20T04:08:55;8.20;99.90
28171;DHT22;15458;53.346;-1.688;2022-12-20T04:11:21;8.20;99.90
28171;DHT22;15458;53.346;-1.688;2022-12-20T04:13:52;8.20;99.90
28171;DHT22;15458;53.346;-1.688;2022-12-20T04:16:23;8.20;99.90
28171;DHT22;15458;53.346;-1.688;2022-12-20T04:18:49;8.10;99.90
28171;DHT22;15458;53.346;-1.688;2022-12-20T04:21:15;8.20;99.90
28171;DHT22;15458;53.346;-1.688;2022-12-20T04:23:45;8.20;99.90
28171;DHT22;15458;53.346;-1.688;2022-12-20T04:26:11;8.20;99.90
28171;DHT22;15458;53.346;-1.688;2022-12-20T04:28:37;8.20;99.90
28171;DHT22;15458;53.346;-1.688;2022-12-20T04:31:03;8.20;99.90
28171;DHT22;15458;53.346;-1.688;2022-12-20T04:33:29;8.20;99.90
28171;DHT22;15458;53.346;-1.688;2022-12-20T04:35:55;8.10;99.90
28171;DHT22;15458;53.346;-1.688;2022-12-20T04:38:21;8.10;99.90
28171;DHT22;15458;53.346;-1.688;2022-12-20T04:40:51;8.10;99.90
28171;DHT22;15458;53.346;-1.688;2022-12-20T04:43:18;8.10;99.90
28171;DHT22;15458;53.346;-1.688;2022-12-20T04:45:46;8.10;99.90
28171;DHT22;15458;53.346;-1.688;2022-12-20T04:48:12;8.10;99.90
28171;DHT22;15458;53.346;-1.688;2022-12-20T04:50:37;8.10;99.90
28171;DHT22;15458;53.346;-1.688;2022-12-20T04:53:03;8.00;99.90
28171;DHT22;15458;53.346;-1.688;2022-12-20T04:55:47;8.00;99.90
28171;DHT22;15458;53.346;-1.688;2022-12-20T04:58:13;8.00;99.90
28171;DHT22;15458;53.346;-1.688;2022-12-20T05:00:39;8.00;99.90
28171;DHT22;15458;53.346;-1.688;2022-12-20T05:03:04;8.00;99.90
28171;DHT22;15458;53.346;-1.688;2022-12-20T05:05:30;8.00;99.90
28171;DHT22;15458;53.346;-1.688;2022-12-20T05:07:56;8.00;99.90
28171;DHT22;15458;53.346;-1.688;2022-12-20T05:10:22;7.90;99.90
28171;DHT22;15458;53.346;-1.688;2022-12-20T05:12:50;7.90;99.90
28171;DHT22;15458;53.346;-1.688;2022-12-20T05:15:16;7.90;99.90
28171;DHT22;15458;53.346;-1.688;2022-12-20T05:17:42;7.90;99.90
28171;DHT22;15458;53.346;-1.688;2022-12-20T05:20:08;7.90;99.90
28171;DHT22;15458;53.346;-1.688;2022-12-20T05:22:34;7.90;99.90
28171;DHT22;15458;53.346;-1.688;2022-12-20T05:25:18;7.90;99.90
28171;DHT22;15458;53.346;-1.688;2022-12-20T05:28:02;7.90;99.90
28171;DHT22;15458;53.346;-1.688;2022-12-20T05:30:28;7.90;99.90
28171;DHT22;15458;53.346;-1.688;2022-12-20T05:32:54;7.90;99.90
28171;DHT22;15458;53.346;-1.688;2022-12-20T05:35:19;7.80;99.90
28171;DHT22;15458;53.346;-1.688;2022-12-20T05:37:45;7.80;99.90
28171;DHT22;15458;53.346;-1.688;2022-12-20T05:40:11;7.90;99.90
28171;DHT22;15458;53.346;-1.688;2022-12-20T05:42:37;7.90;99.90
28171;DHT22;15458;53.346;-1.688;2022-12-20T05:45:04;7.80;99.90
28171;DHT22;15458;53.346;-1.688;2022-12-20T05:47:30;7.80;99.90
28171;DHT22;15458;53.346;-1.688;2022-12-20T05:49:58;7.80;99.90
28171;DHT22;15458;53.346;-1.688;2022-12-20T05:52:24;7.80;99.90
28171;DHT22;15458;53.346;-1.688;2022-12-20T05:54:50;7.80;99.90
28171;DHT22;15458;53.346;-1.688;2022-12-20T05:57:16;7.80;99.90
28171;DHT22;15458;53.346;-1.688;2022-12-20T05:59:42;7.80;99.90
28171;DHT22;15458;53.346;-1.688;2022-12-20T06:02:08;7.80;99.90
28171;DHT22;15458;53.346;-1.688;2022-12-20T06:04:36;7.70;99.90
28171;DHT22;15458;53.346;-1.688;2022-12-20T06:07:03;7.70;99.90
28171;DHT22;15458;53.346;-1.688;2022-12-20T06:09:30;7.70;99.90
28171;DHT22;15458;53.346;-1.688;2022-12-20T06:11:55;7.70;99.90
28171;DHT22;15458;53.346;-1.688;2022-12-20T06:14:21;7.60;99.90
28171;DHT22;15458;53.346;-1.688;2022-12-20T06:16:47;7.60;99.90
28171;DHT22;15458;53.346;-1.688;2022-12-20T06:19:13;7.60;99.90
28171;DHT22;15458;53.346;-1.688;2022-12-20T06:21:39;7.50;99.90
28171;DHT22;15458;53.346;-1.688;2022-12-20T06:24:05;7.50;99.90
28171;DHT22;15458;53.346;-1.688;2022-12-20T06:26:31;7.40;99.90
28171;DHT22;15458;53.346;-1.688;2022-12-20T06:29:05;7.40;99.90
28171;DHT22;15458;53.346;-1.688;2022-12-20T06:31:38;7.30;99.90
28171;DHT22;15458;53.346;-1.688;2022-12-20T06:34:13;7.20;99.90
28171;DHT22;15458;53.346;-1.688;2022-12-20T06:36:40;7.20;99.90
28171;DHT22;15458;53.346;-1.688;2022-12-20T06:39:06;7.10;99.90
28171;DHT22;15458;53.346;-1.688;2022-12-20T06:41:33;7.10;99.90
28171;DHT22;15458;53.346;-1.688;2022-12-20T06:43:59;7.00;99.90
28171;DHT22;15458;53.346;-1.688;2022-12-20T06:46:25;7.00;99.90
28171;DHT22;15458;53.346;-1.688;2022-12-20T06:48:52;6.90;99.90
28171;DHT22;15458;53.346;-1.688;2022-12-20T06:51:18;6.90;99.90
28171;DHT22;15458;53.346;-1.688;2022-12-20T06:53:43;6.90;99.90
28171;DHT22;15458;53.346;-1.688;2022-12-20T06:56:09;6.90;99.90
28171;DHT22;15458;53.346;-1.688;2022-12-20T06:58:35;6.90;99.90
28171;DHT22;15458;53.346;-1.688;2022-12-20T07:01:00;6.90;99.90
28171;DHT22;15458;53.346;-1.688;2022-12-20T07:03:26;6.80;99.90
28171;DHT22;15458;53.346;-1.688;2022-12-20T07:05:52;6.80;99.90
28171;DHT22;15458;53.346;-1.688;2022-12-20T07:08:20;6.70;99.90
28171;DHT22;15458;53.346;-1.688;2022-12-20T07:10:46;6.70;99.90
28171;DHT22;15458;53.346;-1.688;2022-12-20T07:13:12;6.80;99.90
28171;DHT22;15458;53.346;-1.688;2022-12-20T07:15:38;6.70;99.90
28171;DHT22;15458;53.346;-1.688;2022-12-20T07:18:04;6.70;99.90
28171;DHT22;15458;53.346;-1.688;2022-12-20T07:20:31;6.70;99.90
28171;DHT22;15458;53.346;-1.688;2022-12-20T07:22:56;6.70;99.90
28171;DHT22;15458;53.346;-1.688;2022-12-20T07:25:22;6.80;99.90
28171;DHT22;15458;53.346;-1.688;2022-12-20T07:27:49;6.80;99.90
28171;DHT22;15458;53.346;-1.688;2022-12-20T07:30:16;6.80;99.90
28171;DHT22;15458;53.346;-1.688;2022-12-20T07:32:42;6.70;99.90
28171;DHT22;15458;53.346;-1.688;2022-12-20T07:35:09;6.70;99.90
28171;DHT22;15458;53.346;-1.688;2022-12-20T07:37:35;6.70;99.90
28171;DHT22;15458;53.346;-1.688;2022-12-20T07:40:01;6.70;99.90
28171;DHT22;15458;53.346;-1.688;2022-12-20T07:42:27;6.60;99.90
28171;DHT22;15458;53.346;-1.688;2022-12-20T07:44:52;6.60;99.90
28171;DHT22;15458;53.346;-1.688;2022-12-20T07:47:18;6.60;99.90
28171;DHT22;15458;53.346;-1.688;2022-12-20T07:49:44;6.60;99.90
28171;DHT22;15458;53.346;-1.688;2022-12-20T07:52:11;6.50;99.90
28171;DHT22;15458;53.346;-1.688;2022-12-20T07:54:43;6.50;99.90
28171;DHT22;15458;53.346;-1.688;2022-12-20T07:57:18;6.50;99.90
28171;DHT22;15458;53.346;-1.688;2022-12-20T07:59:49;6.50;99.90
28171;DHT22;15458;53.346;-1.688;2022-12-20T08:02:31;6.40;99.90
28171;DHT22;15458;53.346;-1.688;2022-12-20T08:04:59;6.40;99.90
28171;DHT22;15458;53.346;-1.688;2022-12-20T08:07:28;6.30;99.90
28171;DHT22;15458;53.346;-1.688;2022-12-20T08:09:54;6.30;99.90
28171;DHT22;15458;53.346;-1.688;2022-12-20T08:12:20;6.20;99.90
28171;DHT22;15458;53.346;-1.688;2022-12-20T08:14:46;6.20;99.90
28171;DHT22;15458;53.346;-1.688;2022-12-20T08:17:12;6.20;99.90
28171;DHT22;15458;53.346;-1.688;2022-12-20T08:19:38;6.20;99.90
28171;DHT22;15458;53.346;-1.688;2022-12-20T08:22:04;6.20;99.90
28171;DHT22;15458;53.346;-1.688;2022-12-20T08:24:32;6.10;99.90
28171;DHT22;15458;53.346;-1.688;2022-12-20T08:26:57;6.10;99.90
28171;DHT22;15458;53.346;-1.688;2022-12-20T08:29:24;6.10;99.90
28171;DHT22;15458;53.346;-1.688;2022-12-20T08:31:49;6.10;99.90
28171;DHT22;15458;53.346;-1.688;2022-12-20T08:34:15;6.10;99.90
28171;DHT22;15458;53.346;-1.688;2022-12-20T08:36:40;6.10;99.90
28171;DHT22;15458;53.346;-1.688;2022-12-20T08:39:06;6.10;99.90
28171;DHT22;15458;53.346;-1.688;2022-12-20T08:41:35;6.10;99.90
28171;DHT22;15458;53.346;-1.688;2022-12-20T08:44:02;6.20;99.90
28171;DHT22;15458;53.346;-1.688;2022-12-20T08:46:28;6.20;99.90
28171;DHT22;15458;53.346;-1.688;2022-12-20T08:48:53;6.30;99.90
28171;DHT22;15458;53.346;-1.688;2022-12-20T08:51:19;6.30;99.90
28171;DHT22;15458;53.346;-1.688;2022-12-20T08:53:45;6.30;99.90
28171;DHT22;15458;53.346;-1.688;2022-12-20T08:56:13;6.30;99.90
28171;DHT22;15458;53.346;-1.688;2022-12-20T08:58:40;6.40;99.90
28171;DHT22;15458;53.346;-1.688;2022-12-20T09:01:08;6.40;99.90
28171;DHT22;15458;53.346;-1.688;2022-12-20T09:03:37;6.40;99.90
28171;DHT22;15458;53.346;-1.688;2022-12-20T09:06:10;6.40;99.90
28171;DHT22;15458;53.346;-1.688;2022-12-20T09:08:39;6.50;99.90
28171;DHT22;15458;53.346;-1.688;2022-12-20T09:11:08;6.50;99.90
28171;DHT22;15458;53.346;-1.688;2022-12-20T09:13:36;6.60;99.90
28171;DHT22;15458;53.346;-1.688;2022-12-20T09:16:03;6.60;99.90
28171;DHT22;15458;53.346;-1.688;2022-12-20T09:18:30;6.60;99.90
28171;DHT22;15458;53.346;-1.688;2022-12-20T09:21:03;6.70;99.90
28171;DHT22;15458;53.346;-1.688;2022-12-20T09:23:29;6.70;99.90
28171;DHT22;15458;53.346;-1.688;2022-12-20T09:26:04;6.80;99.90
28171;DHT22;15458;53.346;-1.688;2022-12-20T09:28:31;6.80;99.90
28171;DHT22;15458;53.346;-1.688;2022-12-20T09:31:01;6.90;99.90
28171;DHT22;15458;53.346;-1.688;2022-12-20T09:33:28;6.90;99.90
28171;DHT22;15458;53.346;-1.688;2022-12-20T09:35:55;7.00;99.90
28171;DHT22;15458;53.346;-1.688;2022-12-20T09:38:21;7.00;99.90
28171;DHT22;15458;53.346;-1.688;2022-12-20T09:40:50;7.10;99.90
28171;DHT22;15458;53.346;-1.688;2022-12-20T09:43:17;7.10;99.90
28171;DHT22;15458;53.346;-1.688;2022-12-20T09:45:45;7.20;99.90
28171;DHT22;15458;53.346;-1.688;2022-12-20T09:48:22;7.20;99.90
28171;DHT22;15458;53.346;-1.688;2022-12-20T09:51:27;7.30;99.90
28171;DHT22;15458;53.346;-1.688;2022-12-20T09:54:13;7.40;99.90
28171;DHT22;15458;53.346;-1.688;2022-12-20T09:59:51;7.60;99.90
28171;DHT22;15458;53.346;-1.688;2022-12-20T10:02:22;7.80;99.90
28171;DHT22;15458;53.346;-1.688;2022-12-20T10:04:50;7.90;99.90
28171;DHT22;15458;53.346;-1.688;2022-12-20T10:10:27;8.20;99.90
28171;DHT22;15458;53.346;-1.688;2022-12-20T10:13:21;8.50;99.90
28171;DHT22;15458;53.346;-1.688;2022-12-20T10:15:53;8.70;99.90
28171;DHT22;15458;53.346;-1.688;2022-12-20T10:21:32;9.10;99.90
28171;DHT22;15458;53.346;-1.688;2022-12-20T10:24:14;9.30;99.90
28171;DHT22;15458;53.346;-1.688;2022-12-20T10:26:42;9.40;99.90
28171;DHT22;15458;53.346;-1.688;2022-12-20T10:29:10;9.50;99.90
28171;DHT22;15458;53.346;-1.688;2022-12-20T10:31:37;9.60;99.90
28171;DHT22;15458;53.346;-1.688;2022-12-20T10:34:04;9.70;99.90
28171;DHT22;15458;53.346;-1.688;2022-12-20T10:36:33;9.70;99.90
28171;DHT22;15458;53.346;-1.688;2022-12-20T10:39:05;9.90;99.90
28171;DHT22;15458;53.346;-1.688;2022-12-20T10:44:23;10.20;99.90
28171;DHT22;15458;53.346;-1.688;2022-12-20T10:46:56;10.30;99.90
28171;DHT22;15458;53.346;-1.688;2022-12-20T10:52:09;10.50;99.90
28171;DHT22;15458;53.346;-1.688;2022-12-20T10:54:38;10.70;99.90
28171;DHT22;15458;53.346;-1.688;2022-12-20T10:57:24;11.00;99.90
28171;DHT22;15458;53.346;-1.688;2022-12-20T11:00:02;11.10;99.90
28171;DHT22;15458;53.346;-1.688;2022-12-20T11:02:36;11.20;99.90
28171;DHT22;15458;53.346;-1.688;2022-12-20T11:07:34;11.30;99.90
28171;DHT22;15458;53.346;-1.688;2022-12-20T11:10:18;11.40;99.90
28171;DHT22;15458;53.346;-1.688;2022-12-20T11:12:55;11.50;99.90
28171;DHT22;15458;53.346;-1.688;2022-12-20T11:15:24;11.50;99.90
28171;DHT22;15458;53.346;-1.688;2022-12-20T11:18:17;11.50;99.90
28171;DHT22;15458;53.346;-1.688;2022-12-20T11:34:58;12.20;99.90
28171;DHT22;15458;53.346;-1.688;2022-12-20T11:37:32;12.30;99.90
28171;DHT22;15458;53.346;-1.688;2022-12-20T11:40:28;12.40;99.90
28171;DHT22;15458;53.346;-1.688;2022-12-20T11:52:01;12.50;99.90
28171;DHT22;15458;53.346;-1.688;2022-12-20T11:54:33;12.70;99.90
28171;DHT22;15458;53.346;-1.688;2022-12-20T11:57:06;12.90;99.90
28171;DHT22;15458;53.346;-1.688;2022-12-20T12:02:22;13.10;99.90
28171;DHT22;15458;53.346;-1.688;2022-12-20T12:05:02;13.20;99.60
28171;DHT22;15458;53.346;-1.688;2022-12-20T12:07:31;13.20;98.70
28171;DHT22;15458;53.346;-1.688;2022-12-20T12:10:12;13.20;97.60
28171;DHT22;15458;53.346;-1.688;2022-12-20T12:13:02;13.10;97.40
28171;DHT22;15458;53.346;-1.688;2022-12-20T12:15:44;13.00;97.80
28171;DHT22;15458;53.346;-1.688;2022-12-20T12:18:20;13.00;96.80
28171;DHT22;15458;53.346;-1.688;2022-12-20T12:20:51;13.00;97.30
28171;DHT22;15458;53.346;-1.688;2022-12-20T12:23:26;13.10;97.00
28171;DHT22;15458;53.346;-1.688;2022-12-20T12:25:57;12.90;96.80
28171;DHT22;15458;53.346;-1.688;2022-12-20T12:28:25;12.80;96.50
28171;DHT22;15458;53.346;-1.688;2022-12-20T12:31:02;12.80;96.90
28171;DHT22;15458;53.346;-1.688;2022-12-20T12:33:39;13.00;97.20
28171;DHT22;15458;53.346;-1.688;2022-12-20T12:39:03;13.10;96.20
28171;DHT22;15458;53.346;-1.688;2022-12-20T12:46:45;13.80;94.40
28171;DHT22;15458;53.346;-1.688;2022-12-20T12:49:18;13.90;93.60
28171;DHT22;15458;53.346;-1.688;2022-12-20T12:51:54;13.90;93.40
28171;DHT22;15458;53.346;-1.688;2022-12-20T12:54:23;14.00;93.20
28171;DHT22;15458;53.346;-1.688;2022-12-20T12:56:52;14.00;92.40
28171;DHT22;15458;53.346;-1.688;2022-12-20T12:59:26;14.00;92.50
28171;DHT22;15458;53.346;-1.688;2022-12-20T13:07:45;13.80;91.80
28171;DHT22;15458;53.346;-1.688;2022-12-20T13:17:52;14.20;91.60
28171;DHT22;15458;53.346;-1.688;2022-12-20T13:25:50;14.20;89.60
28171;DHT22;15458;53.346;-1.688;2022-12-20T13:33:47;14.10;90.20
28171;DHT22;15458;53.346;-1.688;2022-12-20T13:41:38;14.30;88.60
28171;DHT22;15458;53.346;-1.688;2022-12-20T13:44:32;14.30;88.40
28171;DHT22;15458;53.346;-1.688;2022-12-20T13:47:05;14.40;87.60
28171;DHT22;15458;53.346;-1.688;2022-12-20T13:49:39;14.30;87.60
28171;DHT22;15458;53.346;-1.688;2022-12-20T13:54:41;13.90;89.00
28171;DHT22;15458;53.346;-1.688;2022-12-20T13:57:15;13.50;89.40
28171;DHT22;15458;53.346;-1.688;2022-12-20T13:59:48;12.90;90.40
28171;DHT22;15458;53.346;-1.688;2022-12-20T14:02:23;12.40;91.30
28171;DHT22;15458;53.346;-1.688;2022-12-20T14:05:24;11.90;92.40
28171;DHT22;15458;53.346;-1.688;2022-12-20T14:10:32;11.40;94.80
28171;DHT22;15458;53.346;-1.688;2022-12-20T14:12:58;11.10;95.70
28171;DHT22;15458;53.346;-1.688;2022-12-20T14:17:55;10.70;97.80
28171;DHT22;15458;53.346;-1.688;2022-12-20T14:23:05;10.30;99.20
28171;DHT22;15458;53.346;-1.688;2022-12-20T14:25:41;10.10;99.90
28171;DHT22;15458;53.346;-1.688;2022-12-20T14:28:29;10.00;99.90
28171;DHT22;15458;53.346;-1.688;2022-12-20T14:30:57;9.80;99.90
28171;DHT22;15458;53.346;-1.688;2022-12-20T14:33:36;9.70;99.90
28171;DHT22;15458;53.346;-1.688;2022-12-20T14:36:17;9.60;99.90
28171;DHT22;15458;53.346;-1.688;2022-12-20T14:38:44;9.60;99.90
28171;DHT22;15458;53.346;-1.688;2022-12-20T14:41:37;9.50;99.90
28171;DHT22;15458;53.346;-1.688;2022-12-20T14:44:16;9.40;99.90
28171;DHT22;15458;53.346;-1.688;2022-12-20T14:47:15;9.30;99.90
28171;DHT22;15458;53.346;-1.688;2022-12-20T14:49:58;9.20;99.90
28171;DHT22;15458;53.346;-1.688;2022-12-20T14:52:37;9.10;99.90
28171;DHT22;15458;53.346;-1.688;2022-12-20T14:55:23;9.10;99.90
28171;DHT22;15458;53.346;-1.688;2022-12-20T14:57:54;9.10;99.90
28171;DHT22;15458;53.346;-1.688;2022-12-20T15:00:26;9.10;99.90
28171;DHT22;15458;53.346;-1.688;2022-12-20T15:03:11;9.00;99.90
28171;DHT22;15458;53.346;-1.688;2022-12-20T15:05:48;8.90;99.90
28171;DHT22;15458;53.346;-1.688;2022-12-20T15:08:31;8.80;99.90
28171;DHT22;15458;53.346;-1.688;2022-12-20T15:13:39;8.60;99.90
28171;DHT22;15458;53.346;-1.688;2022-12-20T15:18:44;8.50;99.90
28171;DHT22;15458;53.346;-1.688;2022-12-20T15:21:30;8.50;99.90
28171;DHT22;15458;53.346;-1.688;2022-12-20T15:23:59;8.40;99.90
28171;DHT22;15458;53.346;-1.688;2022-12-20T15:26:27;8.40;99.90
28171;DHT22;15458;53.346;-1.688;2022-12-20T15:28:53;8.30;99.90
28171;DHT22;15458;53.346;-1.688;2022-12-20T15:31:21;8.30;99.90
28171;DHT22;15458;53.346;-1.688;2022-12-20T15:33:49;8.30;99.90
28171;DHT22;15458;53.346;-1.688;2022-12-20T15:36:21;8.30;99.90
28171;DHT22;15458;53.346;-1.688;2022-12-20T15:38:48;8.20;99.90
28171;DHT22;15458;53.346;-1.688;2022-12-20T15:41:27;8.20;99.90
28171;DHT22;15458;53.346;-1.688;2022-12-20T15:43:59;8.20;99.90
28171;DHT22;15458;53.346;-1.688;2022-12-20T15:46:28;8.20;99.90
28171;DHT22;15458;53.346;-1.688;2022-12-20T15:48:54;8.20;99.90
28171;DHT22;15458;53.346;-1.688;2022-12-20T15:51:34;8.20;99.90
28171;DHT22;15458;53.346;-1.688;2022-12-20T15:54:03;8.10;99.90
28171;DHT22;15458;53.346;-1.688;2022-12-20T15:56:29;8.00;99.90
28171;DHT22;15458;53.346;-1.688;2022-12-20T15:58:55;8.00;99.90
28171;DHT22;15458;53.346;-1.688;2022-12-20T16:01:35;7.90;99.90
28171;DHT22;15458;53.346;-1.688;2022-12-20T16:04:02;7.90;99.90
28171;DHT22;15458;53.346;-1.688;2022-12-20T16:06:28;7.80;99.90
28171;DHT22;15458;53.346;-1.688;2022-12-20T16:08:54;7.80;99.90
28171;DHT22;15458;53.346;-1.688;2022-12-20T16:11:23;7.70;99.90
28171;DHT22;15458;53.346;-1.688;2022-12-20T16:13:50;7.70;99.90
28171;DHT22;15458;53.346;-1.688;2022-12-20T16:16:17;7.60;99.90
28171;DHT22;15458;53.346;-1.688;2022-12-20T16:18:44;7.50;99.90
28171;DHT22;15458;53.346;-1.688;2022-12-20T16:23:44;7.40;99.90
28171;DHT22;15458;53.346;-1.688;2022-12-20T16:26:14;7.40;99.90
28171;DHT22;15458;53.346;-1.688;2022-12-20T16:28:41;7.30;99.90
28171;DHT22;15458;53.346;-1.688;2022-12-20T16:31:16;7.30;99.90
28171;DHT22;15458;53.346;-1.688;2022-12-20T16:33:44;7.30;99.90
28171;DHT22;15458;53.346;-1.688;2022-12-20T16:36:10;7.30;99.90
28171;DHT22;15458;53.346;-1.688;2022-12-20T16:38:39;7.20;99.90
28171;DHT22;15458;53.346;-1.688;2022-12-20T16:41:11;7.20;99.90
28171;DHT22;15458;53.346;-1.688;2022-12-20T16:43:37;7.20;99.90
28171;DHT22;15458;53.346;-1.688;2022-12-20T16:46:03;7.20;99.90
28171;DHT22;15458;53.346;-1.688;2022-12-20T16:48:29;7.20;99.90
28171;DHT22;15458;53.346;-1.688;2022-12-20T16:50:56;7.10;99.90
28171;DHT22;15458;53.346;-1.688;2022-12-20T16:53:22;7.10;99.90
28171;DHT22;15458;53.346;-1.688;2022-12-20T16:55:47;7.10;99.90
28171;DHT22;15458;53.346;-1.688;2022-12-20T16:58:13;7.10;99.90
28171;DHT22;15458;53.346;-1.688;2022-12-20T17:00:39;7.00;99.90
28171;DHT22;15458;53.346;-1.688;2022-12-20T17:03:04;7.10;99.90
28171;DHT22;15458;53.346;-1.688;2022-12-20T17:05:33;7.00;99.90
28171;DHT22;15458;53.346;-1.688;2022-12-20T17:08:01;7.00;99.90
28171;DHT22;15458;53.346;-1.688;2022-12-20T17:54:26;6.90;99.90
28171;DHT22;15458;53.346;-1.688;2022-12-20T17:57:05;6.90;99.90
28171;DHT22;15458;53.346;-1.688;2022-12-20T17:59:31;6.90;99.90
28171;DHT22;15458;53.346;-1.688;2022-12-20T18:01:57;6.90;99.90
28171;DHT22;15458;53.346;-1.688;2022-12-20T18:04:22;7.00;99.90
28171;DHT22;15458;53.346;-1.688;2022-12-20T18:06:48;7.00;99.90
28171;DHT22;15458;53.346;-1.688;2022-12-20T18:09:19;7.00;99.90
28171;DHT22;15458;53.346;-1.688;2022-12-20T18:11:45;7.00;99.90
28171;DHT22;15458;53.346;-1.688;2022-12-20T18:14:11;7.10;99.90
28171;DHT22;15458;53.346;-1.688;2022-12-20T18:16:37;7.10;99.90
28171;DHT22;15458;53.346;-1.688;2022-12-20T18:19:04;7.00;99.90